createdAt,value
2018-09-13T00:00:10.073Z,59.50
2018-09-13T00:00:42.205Z,59.60
2018-09-13T00:01:14.008Z,59.50
2018-09-13T00:01:45.844Z,59.50
2018-09-13T00:02:17.710Z,59.40
2018-09-13T00:02:49.550Z,59.50
2018-09-13T00:03:21.374Z,59.40
2018-09-13T00:03:53.225Z,59.50
2018-09-13T00:04:25.053Z,59.50
2018-09-13T00:04:57.084Z,59.50
2018-09-13T00:05:28.954Z,59.50
2018-09-13T00:06:00.952Z,59.40
2018-09-13T00:06:33.094Z,59.50
2018-09-13T00:07:05.162Z,59.50
2018-09-13T00:07:37.060Z,59.50
2018-09-13T00:08:08.988Z,59.50
2018-09-13T00:08:40.806Z,59.50
2018-09-13T00:09:12.628Z,59.50
2018-09-13T00:09:44.462Z,59.50
2018-09-13T00:10:16.312Z,60.10
2018-09-13T00:10:48.273Z,59.50
2018-09-13T00:11:20.326Z,59.60
2018-09-13T00:11:52.174Z,59.50
2018-09-13T00:12:24.007Z,59.60
2018-09-13T00:12:55.923Z,59.50
2018-09-13T00:13:27.873Z,59.60
2018-09-13T00:13:59.789Z,59.60
2018-09-13T00:14:31.757Z,59.60
2018-09-13T00:15:03.611Z,59.20
2018-09-13T00:15:35.612Z,59.70
2018-09-13T00:16:07.481Z,59.70
2018-09-13T00:16:39.376Z,59.60
2018-09-13T00:17:11.560Z,59.60
2018-09-13T00:17:43.381Z,59.60
2018-09-13T00:18:15.214Z,59.60
2018-09-13T00:18:47.111Z,59.60
2018-09-13T00:19:19.206Z,59.60
2018-09-13T00:19:50.983Z,59.50
2018-09-13T00:20:22.761Z,59.50
2018-09-13T00:20:54.814Z,59.60
2018-09-13T00:21:26.678Z,59.60
2018-09-13T00:21:58.513Z,59.50
2018-09-13T00:22:30.302Z,59.60
2018-09-13T00:23:02.087Z,59.50
2018-09-13T00:23:33.977Z,59.50
2018-09-13T00:24:05.760Z,59.50
2018-09-13T00:24:37.625Z,59.60
2018-09-13T00:25:09.446Z,59.50
2018-09-13T00:25:41.277Z,59.50
2018-09-13T00:26:13.072Z,59.50
2018-09-13T00:26:44.908Z,60.20
2018-09-13T00:27:16.867Z,59.50
2018-09-13T00:27:48.682Z,59.50
2018-09-13T00:28:20.617Z,59.40
2018-09-13T00:28:52.487Z,59.50
2018-09-13T00:29:24.500Z,59.50
2018-09-13T00:29:56.319Z,59.40
2018-09-13T00:30:28.320Z,59.40
2018-09-13T00:31:00.286Z,59.50
2018-09-13T00:31:32.139Z,59.50
2018-09-13T00:32:03.940Z,59.50
2018-09-13T00:32:35.809Z,59.40
2018-09-13T00:33:07.711Z,59.50
2018-09-13T00:33:39.829Z,59.50
2018-09-13T00:34:11.666Z,59.50
2018-09-13T00:34:43.572Z,59.50
2018-09-13T00:35:15.675Z,59.50
2018-09-13T00:35:47.484Z,59.50
2018-09-13T00:36:19.395Z,59.40
2018-09-13T00:36:51.200Z,59.50
2018-09-13T00:37:22.991Z,59.50
2018-09-13T00:37:54.891Z,59.50
2018-09-13T00:38:26.785Z,59.60
2018-09-13T00:38:58.774Z,59.70
2018-09-13T00:39:30.651Z,59.50
2018-09-13T00:40:02.645Z,59.60
2018-09-13T00:40:34.455Z,59.60
2018-09-13T00:41:06.269Z,59.50
2018-09-13T00:41:38.396Z,59.50
2018-09-13T00:42:10.234Z,59.60
2018-09-13T00:42:42.228Z,59.50
2018-09-13T00:43:14.204Z,59.60
2018-09-13T00:43:46.209Z,60.30
2018-09-13T00:44:18.066Z,59.60
2018-09-13T00:44:49.895Z,60.10
2018-09-13T00:45:21.856Z,59.60
2018-09-13T00:45:53.746Z,59.60
2018-09-13T00:46:25.587Z,59.70
2018-09-13T00:46:57.404Z,59.60
2018-09-13T00:47:29.293Z,59.50
2018-09-13T00:48:01.413Z,59.50
2018-09-13T00:48:33.266Z,59.50
2018-09-13T00:49:05.101Z,59.50
2018-09-13T00:49:37.055Z,59.60
2018-09-13T00:50:08.933Z,59.70
2018-09-13T00:50:40.719Z,59.60
2018-09-13T00:51:12.716Z,59.50
2018-09-13T00:51:44.712Z,59.50
2018-09-13T00:52:16.532Z,59.60
2018-09-13T00:52:48.324Z,59.50
2018-09-13T00:53:20.141Z,59.60
2018-09-13T00:53:51.969Z,59.50
2018-09-13T00:54:23.803Z,59.50
2018-09-13T00:54:55.575Z,59.50
2018-09-13T00:55:27.406Z,59.50
2018-09-13T00:55:59.207Z,59.50
2018-09-13T00:56:31.002Z,59.60
2018-09-13T00:57:02.877Z,59.60
2018-09-13T00:57:34.926Z,59.60
2018-09-13T00:58:06.746Z,59.50
2018-09-13T00:58:38.640Z,59.60
2018-09-13T00:59:10.753Z,59.60
2018-09-13T00:59:42.727Z,59.50
2018-09-13T01:00:14.515Z,59.50
2018-09-13T01:00:46.477Z,59.50
2018-09-13T01:01:18.439Z,59.50
2018-09-13T01:01:50.299Z,59.50
2018-09-13T01:02:22.121Z,59.40
2018-09-13T01:02:53.889Z,59.50
2018-09-13T01:03:25.706Z,59.40
2018-09-13T01:03:57.591Z,59.50
2018-09-13T01:04:29.393Z,59.50
2018-09-13T01:05:01.237Z,59.40
2018-09-13T01:05:33.408Z,59.50
2018-09-13T01:06:05.279Z,59.50
2018-09-13T01:06:37.087Z,59.50
2018-09-13T01:07:09.081Z,59.50
2018-09-13T01:07:41.376Z,59.50
2018-09-13T01:08:13.361Z,59.50
2018-09-13T01:08:45.170Z,59.50
2018-09-13T01:09:17.038Z,59.50
2018-09-13T01:09:48.835Z,59.50
2018-09-13T01:10:20.656Z,59.50
2018-09-13T01:10:52.498Z,59.50
2018-09-13T01:11:24.497Z,59.20
2018-09-13T01:11:56.438Z,59.50
2018-09-13T01:12:28.736Z,59.60
2018-09-13T01:13:00.667Z,59.50
2018-09-13T01:13:32.476Z,59.00
2018-09-13T01:14:04.299Z,59.60
2018-09-13T01:14:36.091Z,59.60
2018-09-13T01:15:07.853Z,59.60
2018-09-13T01:15:39.801Z,59.60
2018-09-13T01:16:11.618Z,59.70
2018-09-13T01:16:43.835Z,59.60
2018-09-13T01:17:15.996Z,59.60
2018-09-13T01:17:47.820Z,59.70
2018-09-13T01:18:19.770Z,59.60
2018-09-13T01:18:52.138Z,59.60
2018-09-13T01:19:24.159Z,59.30
2018-09-13T01:19:56.239Z,59.50
2018-09-13T01:20:28.368Z,59.60
2018-09-13T01:21:00.487Z,60.10
2018-09-13T01:21:32.556Z,59.80
2018-09-13T01:22:04.487Z,59.60
2018-09-13T01:22:36.602Z,59.70
2018-09-13T01:23:08.927Z,59.50
2018-09-13T01:23:41.037Z,59.60
2018-09-13T01:24:13.416Z,59.60
2018-09-13T01:24:45.257Z,59.60
2018-09-13T01:25:17.043Z,59.50
2018-09-13T01:25:49.206Z,59.60
2018-09-13T01:26:21.017Z,59.60
2018-09-13T01:26:52.887Z,59.50
2018-09-13T01:27:24.977Z,59.70
2018-09-13T01:27:56.766Z,59.70
2018-09-13T01:28:28.700Z,59.80
2018-09-13T01:29:00.467Z,59.70
2018-09-13T01:29:32.279Z,59.70
2018-09-13T01:30:04.322Z,59.70
2018-09-13T01:30:36.172Z,59.70
2018-09-13T01:31:07.944Z,59.70
2018-09-13T01:31:39.827Z,59.70
2018-09-13T01:32:11.680Z,59.80
2018-09-13T01:32:43.508Z,59.70
2018-09-13T01:33:15.488Z,59.70
2018-09-13T01:33:47.697Z,59.80
2018-09-13T01:34:19.658Z,59.80
2018-09-13T01:34:51.548Z,59.70
2018-09-13T01:35:23.807Z,59.80
2018-09-13T01:35:55.778Z,59.80
2018-09-13T01:36:27.617Z,59.70
2018-09-13T01:36:59.801Z,59.80
2018-09-13T01:37:31.986Z,59.80
2018-09-13T01:38:04.197Z,59.80
2018-09-13T01:38:36.126Z,59.80
2018-09-13T01:39:07.986Z,59.80
2018-09-13T01:39:39.857Z,59.70
2018-09-13T01:40:11.619Z,59.70
2018-09-13T01:40:43.457Z,59.70
2018-09-13T01:41:15.284Z,59.80
2018-09-13T01:41:47.084Z,59.70
2018-09-13T01:42:19.387Z,59.60
2018-09-13T01:42:51.238Z,59.70
2018-09-13T01:43:23.276Z,59.70
2018-09-13T01:43:55.165Z,59.70
2018-09-13T01:44:26.980Z,59.70
2018-09-13T01:44:58.853Z,59.70
2018-09-13T01:45:30.654Z,59.70
2018-09-13T01:46:02.588Z,59.60
2018-09-13T01:46:34.499Z,59.70
2018-09-13T01:47:06.848Z,59.70
2018-09-13T01:47:38.637Z,59.60
2018-09-13T01:48:10.449Z,59.60
2018-09-13T01:48:42.249Z,59.70
2018-09-13T01:49:14.061Z,59.70
2018-09-13T01:49:45.938Z,59.70
2018-09-13T01:50:17.740Z,59.80
2018-09-13T01:50:49.569Z,59.80
2018-09-13T01:51:21.816Z,59.80
2018-09-13T01:51:53.921Z,59.80
2018-09-13T01:52:25.918Z,59.80
2018-09-13T01:52:58.345Z,59.70
2018-09-13T01:53:30.297Z,59.80
2018-09-13T01:54:02.358Z,59.80
2018-09-13T01:54:34.178Z,59.80
2018-09-13T01:55:06.103Z,59.80
2018-09-13T01:55:37.991Z,59.80
2018-09-13T01:56:09.839Z,59.80
2018-09-13T01:56:41.806Z,59.80
2018-09-13T01:57:13.727Z,59.80
2018-09-13T01:57:45.908Z,59.80
2018-09-13T01:58:17.776Z,59.80
2018-09-13T01:58:49.577Z,59.90
2018-09-13T01:59:21.634Z,59.80
2018-09-13T01:59:53.607Z,59.80
2018-09-13T02:00:25.490Z,59.80
2018-09-13T02:00:57.364Z,59.80
2018-09-13T02:01:29.389Z,59.20
2018-09-13T02:02:01.340Z,59.80
2018-09-13T02:02:33.226Z,59.80
2018-09-13T02:03:05.198Z,59.70
2018-09-13T02:03:37.684Z,59.70
2018-09-13T02:04:09.634Z,59.80
2018-09-13T02:04:41.642Z,59.80
2018-09-13T02:05:13.693Z,59.80
2018-09-13T02:05:45.553Z,60.50
2018-09-13T02:06:17.420Z,59.80
2018-09-13T02:06:49.229Z,60.20
2018-09-13T02:07:21.236Z,59.80
2018-09-13T02:07:53.188Z,59.80
2018-09-13T02:08:24.987Z,59.80
2018-09-13T02:08:56.946Z,60.50
2018-09-13T02:09:28.818Z,59.80
2018-09-13T02:10:00.630Z,60.60
2018-09-13T02:10:33.317Z,59.80
2018-09-13T02:11:05.148Z,59.80
2018-09-13T02:11:37.307Z,59.80
2018-09-13T02:12:09.347Z,59.80
2018-09-13T02:12:41.197Z,59.80
2018-09-13T02:13:13.204Z,59.80
2018-09-13T02:13:45.225Z,59.70
2018-09-13T02:14:17.179Z,59.80
2018-09-13T02:14:49.440Z,59.80
2018-09-13T02:15:21.233Z,59.80
2018-09-13T02:15:53.120Z,59.80
2018-09-13T02:16:24.935Z,59.80
2018-09-13T02:16:56.856Z,59.80
2018-09-13T02:17:28.986Z,59.80
2018-09-13T02:18:00.895Z,59.80
2018-09-13T02:18:32.940Z,60.30
2018-09-13T02:19:04.797Z,59.70
2018-09-13T02:19:36.846Z,59.70
2018-09-13T02:20:08.787Z,59.70
2018-09-13T02:20:40.843Z,59.70
2018-09-13T02:21:12.894Z,59.70
2018-09-13T02:21:44.905Z,59.70
2018-09-13T02:22:17.156Z,59.70
2018-09-13T02:22:49.307Z,59.70
2018-09-13T02:23:21.152Z,59.70
2018-09-13T02:23:53.153Z,59.70
2018-09-13T02:24:25.025Z,59.60
2018-09-13T02:24:57.497Z,59.60
2018-09-13T02:25:29.317Z,59.60
2018-09-13T02:26:01.291Z,59.60
2018-09-13T02:26:33.266Z,59.60
2018-09-13T02:27:05.141Z,59.60
2018-09-13T02:27:36.956Z,59.60
2018-09-13T02:28:09.054Z,60.20
2018-09-13T02:28:41.028Z,59.60
2018-09-13T02:29:13.500Z,59.60
2018-09-13T02:29:45.337Z,59.60
2018-09-13T02:30:17.114Z,59.60
2018-09-13T02:30:48.935Z,59.60
2018-09-13T02:31:20.799Z,59.60
2018-09-13T02:31:52.915Z,59.60
2018-09-13T02:32:24.912Z,59.60
2018-09-13T02:32:56.920Z,59.60
2018-09-13T02:33:29.004Z,59.60
2018-09-13T02:34:00.817Z,59.50
2018-09-13T02:34:32.706Z,60.20
2018-09-13T02:35:04.545Z,59.60
2018-09-13T02:35:36.363Z,59.60
2018-09-13T02:36:08.254Z,59.60
2018-09-13T02:36:40.244Z,59.50
2018-09-13T02:37:12.078Z,59.60
2018-09-13T02:37:43.914Z,59.70
2018-09-13T02:38:15.737Z,59.60
2018-09-13T02:38:47.584Z,59.60
2018-09-13T02:39:19.359Z,59.60
2018-09-13T02:39:51.332Z,59.60
2018-09-13T02:40:23.176Z,59.60
2018-09-13T02:40:54.988Z,59.60
2018-09-13T02:41:26.790Z,59.70
2018-09-13T02:41:58.603Z,59.70
2018-09-13T02:42:30.425Z,59.70
2018-09-13T02:43:02.392Z,59.70
2018-09-13T02:43:34.463Z,59.70
2018-09-13T02:44:06.277Z,59.70
2018-09-13T02:44:38.269Z,59.70
2018-09-13T02:45:10.369Z,59.70
2018-09-13T02:45:42.204Z,59.90
2018-09-13T02:46:14.309Z,59.60
2018-09-13T02:46:46.209Z,59.60
2018-09-13T02:47:18.110Z,59.70
2018-09-13T02:47:50.095Z,59.60
2018-09-13T02:48:22.116Z,59.60
2018-09-13T02:48:53.994Z,59.70
2018-09-13T02:49:25.914Z,60.30
2018-09-13T02:49:57.844Z,59.60
2018-09-13T02:50:29.712Z,59.70
2018-09-13T02:51:01.734Z,59.60
2018-09-13T02:51:33.554Z,59.70
2018-09-13T02:52:05.373Z,59.60
2018-09-13T02:52:37.216Z,60.40
2018-09-13T02:53:09.035Z,59.70
2018-09-13T02:53:41.083Z,59.70
2018-09-13T02:54:13.246Z,59.80
2018-09-13T02:54:45.041Z,59.70
2018-09-13T02:55:16.844Z,59.70
2018-09-13T02:55:48.885Z,59.70
2018-09-13T02:56:20.773Z,59.70
2018-09-13T02:56:52.548Z,59.70
2018-09-13T02:57:24.446Z,59.70
2018-09-13T02:57:56.213Z,59.70
2018-09-13T02:58:28.234Z,59.80
2018-09-13T02:59:00.014Z,59.70
2018-09-13T02:59:31.893Z,59.70
2018-09-13T03:00:03.669Z,60.30
2018-09-13T03:00:35.550Z,60.40
2018-09-13T03:01:07.594Z,59.70
2018-09-13T03:01:39.432Z,59.70
2018-09-13T03:02:11.328Z,59.60
2018-09-13T03:02:43.120Z,59.60
2018-09-13T03:03:14.982Z,60.20
2018-09-13T03:03:46.792Z,59.70
2018-09-13T03:04:18.613Z,59.70
2018-09-13T03:04:50.397Z,59.70
2018-09-13T03:05:22.233Z,59.60
2018-09-13T03:05:54.391Z,59.60
2018-09-13T03:06:26.491Z,59.70
2018-09-13T03:06:58.362Z,59.90
2018-09-13T03:07:30.181Z,59.50
2018-09-13T03:08:02.032Z,59.50
2018-09-13T03:08:33.823Z,59.60
2018-09-13T03:09:05.738Z,59.50
2018-09-13T03:09:37.553Z,59.60
2018-09-13T03:10:09.601Z,59.50
2018-09-13T03:10:41.404Z,59.50
2018-09-13T03:11:13.462Z,59.50
2018-09-13T03:11:45.293Z,59.50
2018-09-13T03:12:17.190Z,59.50
2018-09-13T03:12:49.161Z,60.00
2018-09-13T03:13:21.182Z,59.50
2018-09-13T03:13:53.028Z,59.40
2018-09-13T03:14:25.024Z,59.40
2018-09-13T03:14:56.855Z,59.40
2018-09-13T03:15:28.733Z,59.40
2018-09-13T03:16:00.532Z,59.40
2018-09-13T03:16:32.369Z,59.40
2018-09-13T03:17:04.197Z,59.40
2018-09-13T03:17:36.118Z,59.30
2018-09-13T03:18:08.025Z,59.30
2018-09-13T03:18:39.937Z,59.60
2018-09-13T03:19:11.944Z,59.10
2018-09-13T03:19:43.787Z,59.20
2018-09-13T03:20:15.778Z,59.20
2018-09-13T03:20:47.590Z,59.20
2018-09-13T03:21:19.453Z,59.20
2018-09-13T03:21:51.250Z,59.10
2018-09-13T03:22:23.076Z,59.20
2018-09-13T03:22:54.927Z,59.10
2018-09-13T03:23:26.988Z,59.10
2018-09-13T03:23:58.791Z,59.10
2018-09-13T03:24:30.616Z,59.10
2018-09-13T03:25:02.614Z,59.80
2018-09-13T03:25:34.382Z,59.10
2018-09-13T03:26:06.299Z,59.10
2018-09-13T03:26:38.437Z,59.20
2018-09-13T03:27:10.244Z,59.00
2018-09-13T03:27:42.071Z,59.10
2018-09-13T03:28:13.901Z,59.10
2018-09-13T03:28:45.716Z,59.10
2018-09-13T03:29:17.514Z,59.20
2018-09-13T03:29:49.318Z,59.20
2018-09-13T03:30:21.161Z,59.10
2018-09-13T03:30:53.205Z,59.20
2018-09-13T03:31:25.073Z,59.10
2018-09-13T03:31:56.847Z,59.10
2018-09-13T03:32:28.738Z,59.10
2018-09-13T03:33:00.972Z,59.10
2018-09-13T03:33:32.883Z,59.10
2018-09-13T03:34:04.710Z,59.40
2018-09-13T03:34:36.520Z,58.90
2018-09-13T03:35:08.431Z,58.90
2018-09-13T03:35:40.270Z,58.90
2018-09-13T03:36:12.623Z,58.90
2018-09-13T03:36:44.570Z,58.80
2018-09-13T03:37:16.405Z,58.90
2018-09-13T03:37:48.367Z,58.90
2018-09-13T03:38:20.189Z,59.00
2018-09-13T03:38:52.079Z,58.90
2018-09-13T03:39:23.899Z,59.00
2018-09-13T03:39:55.890Z,58.80
2018-09-13T03:40:27.669Z,58.80
2018-09-13T03:40:59.812Z,58.90
2018-09-13T03:41:31.739Z,58.80
2018-09-13T03:42:03.631Z,59.00
2018-09-13T03:42:35.562Z,58.90
2018-09-13T03:43:07.372Z,58.90
2018-09-13T03:43:39.232Z,58.90
2018-09-13T03:44:11.211Z,58.90
2018-09-13T03:44:43.168Z,58.90
2018-09-13T03:45:14.998Z,58.90
2018-09-13T03:45:46.778Z,58.90
2018-09-13T03:46:18.637Z,58.90
2018-09-13T03:46:50.707Z,58.90
2018-09-13T03:47:22.588Z,58.90
2018-09-13T03:47:54.417Z,58.80
2018-09-13T03:48:26.252Z,58.90
2018-09-13T03:48:58.117Z,58.70
2018-09-13T03:49:29.948Z,58.80
2018-09-13T03:50:01.785Z,58.80
2018-09-13T03:50:33.625Z,58.80
2018-09-13T03:51:05.413Z,58.80
2018-09-13T03:51:37.305Z,58.70
2018-09-13T03:52:09.167Z,58.70
2018-09-13T03:52:41.298Z,58.70
2018-09-13T03:53:13.106Z,58.70
2018-09-13T03:53:44.939Z,58.60
2018-09-13T03:54:17.014Z,58.70
2018-09-13T03:54:49.070Z,58.70
2018-09-13T03:55:20.935Z,58.70
2018-09-13T03:55:52.758Z,58.60
2018-09-13T03:56:24.644Z,58.70
2018-09-13T03:56:56.493Z,58.70
2018-09-13T03:57:28.419Z,58.70
2018-09-13T03:58:00.304Z,58.80
2018-09-13T03:58:32.402Z,58.70
2018-09-13T03:59:04.344Z,59.30
2018-09-13T03:59:36.141Z,58.70
2018-09-13T04:00:08.190Z,58.60
2018-09-13T04:00:40.183Z,58.70
2018-09-13T04:01:12.023Z,58.80
2018-09-13T04:01:43.822Z,58.70
2018-09-13T04:02:51.452Z,58.80
2018-09-13T04:03:23.286Z,58.80
2018-09-13T04:03:55.292Z,58.70
2018-09-13T04:04:27.137Z,58.70
2018-09-13T04:04:58.985Z,58.70
2018-09-13T04:05:30.816Z,58.80
2018-09-13T04:06:02.764Z,58.70
2018-09-13T04:06:34.556Z,58.70
2018-09-13T04:07:06.544Z,58.80
2018-09-13T04:07:38.383Z,58.70
2018-09-13T04:08:10.280Z,58.80
2018-09-13T04:08:42.227Z,58.80
2018-09-13T04:09:14.233Z,58.80
2018-09-13T04:09:46.257Z,58.80
2018-09-13T04:10:18.043Z,58.80
2018-09-13T04:10:49.864Z,58.70
2018-09-13T04:11:22.003Z,58.80
2018-09-13T04:11:53.794Z,58.80
2018-09-13T04:12:25.830Z,58.80
2018-09-13T04:12:57.741Z,58.90
2018-09-13T04:13:29.720Z,58.90
2018-09-13T04:14:01.605Z,58.80
2018-09-13T04:14:33.490Z,59.30
2018-09-13T04:15:05.323Z,58.90
2018-09-13T04:15:37.201Z,58.90
2018-09-13T04:16:09.093Z,58.80
2018-09-13T04:16:41.341Z,58.90
2018-09-13T04:17:13.143Z,58.90
2018-09-13T04:17:44.937Z,58.90
2018-09-13T04:18:16.749Z,58.90
2018-09-13T04:18:48.950Z,58.90
2018-09-13T04:19:20.864Z,59.00
2018-09-13T04:19:52.687Z,59.00
2018-09-13T04:20:24.489Z,59.00
2018-09-13T04:20:56.298Z,58.90
2018-09-13T04:21:28.202Z,58.90
2018-09-13T04:22:00.186Z,58.90
2018-09-13T04:22:32.031Z,58.80
2018-09-13T04:23:03.995Z,58.90
2018-09-13T04:23:35.846Z,58.80
2018-09-13T04:24:07.667Z,58.90
2018-09-13T04:24:39.620Z,58.90
2018-09-13T04:25:11.501Z,58.50
2018-09-13T04:25:43.287Z,58.90
2018-09-13T04:26:15.220Z,58.80
2018-09-13T04:26:47.029Z,58.70
2018-09-13T04:27:18.843Z,58.80
2018-09-13T04:27:50.680Z,58.80
2018-09-13T04:28:22.611Z,58.90
2018-09-13T04:28:54.447Z,58.90
2018-09-13T04:29:26.360Z,58.90
2018-09-13T04:29:58.260Z,59.70
2018-09-13T04:30:30.082Z,60.40
2018-09-13T04:31:01.992Z,59.70
2018-09-13T04:31:33.812Z,59.60
2018-09-13T04:32:05.650Z,59.80
2018-09-13T04:32:37.584Z,59.80
2018-09-13T04:33:09.412Z,60.00
2018-09-13T04:33:41.293Z,60.80
2018-09-13T04:34:13.143Z,60.50
2018-09-13T04:34:44.948Z,60.60
2018-09-13T04:35:16.766Z,60.90
2018-09-13T04:35:49.022Z,60.80
2018-09-13T04:36:20.966Z,61.00
2018-09-13T04:36:52.837Z,60.90
2018-09-13T04:37:24.708Z,60.70
2018-09-13T04:37:56.580Z,60.70
2018-09-13T04:38:28.460Z,60.70
2018-09-13T04:39:00.317Z,61.50
2018-09-13T04:39:32.247Z,61.20
2018-09-13T04:40:04.094Z,61.50
2018-09-13T04:40:35.930Z,61.90
2018-09-13T04:41:07.752Z,61.40
2018-09-13T04:41:39.609Z,61.50
2018-09-13T04:42:11.439Z,61.50
2018-09-13T04:42:43.281Z,61.50
2018-09-13T04:43:15.489Z,61.60
2018-09-13T04:43:47.368Z,61.60
2018-09-13T04:44:19.193Z,61.40
2018-09-13T04:44:51.021Z,61.90
2018-09-13T04:45:22.826Z,61.50
2018-09-13T04:45:54.682Z,62.30
2018-09-13T04:46:26.595Z,62.50
2018-09-13T04:46:58.477Z,62.20
2018-09-13T04:47:30.362Z,62.10
2018-09-13T04:48:02.252Z,62.00
2018-09-13T04:48:34.252Z,62.00
2018-09-13T04:49:06.128Z,62.80
2018-09-13T04:49:38.153Z,61.90
2018-09-13T04:50:09.973Z,61.70
2018-09-13T04:50:41.908Z,62.20
2018-09-13T04:51:13.714Z,62.00
2018-09-13T04:51:45.734Z,62.30
2018-09-13T04:52:17.620Z,62.00
2018-09-13T04:52:49.425Z,62.30
2018-09-13T04:53:21.343Z,62.00
2018-09-13T04:53:53.318Z,62.00
2018-09-13T04:54:25.105Z,61.90
2018-09-13T04:54:57.284Z,61.70
2018-09-13T04:55:29.132Z,61.80
2018-09-13T04:56:01.030Z,62.00
2018-09-13T04:56:33.004Z,62.10
2018-09-13T04:57:04.819Z,61.90
2018-09-13T04:57:36.660Z,61.70
2018-09-13T04:58:08.667Z,61.90
2018-09-13T04:58:40.517Z,61.60
2018-09-13T04:59:12.364Z,61.60
2018-09-13T04:59:44.409Z,61.80
2018-09-13T05:00:16.620Z,62.10
2018-09-13T05:00:48.727Z,61.30
2018-09-13T05:01:20.525Z,61.80
2018-09-13T05:01:52.319Z,62.40
2018-09-13T05:02:24.241Z,62.20
2018-09-13T05:02:56.092Z,61.80
2018-09-13T05:03:27.964Z,61.80
2018-09-13T05:03:59.777Z,62.00
2018-09-13T05:04:31.724Z,61.80
2018-09-13T05:05:03.649Z,62.00
2018-09-13T05:05:35.590Z,62.10
2018-09-13T05:06:07.413Z,61.80
2018-09-13T05:06:39.586Z,61.80
2018-09-13T05:07:11.560Z,61.60
2018-09-13T05:07:43.578Z,61.70
2018-09-13T05:08:15.412Z,62.00
2018-09-13T05:08:47.412Z,61.40
2018-09-13T05:09:19.187Z,61.60
2018-09-13T05:09:51.068Z,61.80
2018-09-13T05:10:22.880Z,61.80
2018-09-13T05:10:54.792Z,61.60
2018-09-13T05:11:26.833Z,61.80
2018-09-13T05:11:58.789Z,61.80
2018-09-13T05:12:30.681Z,61.70
2018-09-13T05:13:02.512Z,62.50
2018-09-13T05:13:34.333Z,61.80
2018-09-13T05:14:06.182Z,61.80
2018-09-13T05:14:38.047Z,61.60
2018-09-13T05:15:10.322Z,61.60
2018-09-13T05:15:42.348Z,61.80
2018-09-13T05:16:14.303Z,61.50
2018-09-13T05:16:46.104Z,62.40
2018-09-13T05:17:17.981Z,61.60
2018-09-13T05:17:49.994Z,61.60
2018-09-13T05:18:21.994Z,61.80
2018-09-13T05:18:53.905Z,62.20
2018-09-13T05:19:25.897Z,61.60
2018-09-13T05:19:57.669Z,61.50
2018-09-13T05:20:29.585Z,61.20
2018-09-13T05:21:01.461Z,61.40
2018-09-13T05:21:33.257Z,61.60
2018-09-13T05:22:05.079Z,61.50
2018-09-13T05:22:36.977Z,61.50
2018-09-13T05:23:08.881Z,61.50
2018-09-13T05:23:40.726Z,61.20
2018-09-13T05:24:12.651Z,61.40
2018-09-13T05:24:44.665Z,61.20
2018-09-13T05:25:16.506Z,61.40
2018-09-13T05:25:48.601Z,61.40
2018-09-13T05:26:20.478Z,61.40
2018-09-13T05:26:52.284Z,61.40
2018-09-13T05:27:24.189Z,61.30
2018-09-13T05:27:55.974Z,61.30
2018-09-13T05:28:27.806Z,61.40
2018-09-13T05:28:59.739Z,62.20
2018-09-13T05:29:31.596Z,61.40
2018-09-13T05:30:03.465Z,62.00
2018-09-13T05:30:35.357Z,62.00
2018-09-13T05:31:07.179Z,61.30
2018-09-13T05:31:39.103Z,61.20
2018-09-13T05:32:11.098Z,61.20
2018-09-13T05:32:42.977Z,61.30
2018-09-13T05:33:14.931Z,61.20
2018-09-13T05:33:46.768Z,61.60
2018-09-13T05:34:18.597Z,61.30
2018-09-13T05:34:50.508Z,61.30
2018-09-13T05:35:22.447Z,61.40
2018-09-13T05:35:54.304Z,61.30
2018-09-13T05:36:26.126Z,61.30
2018-09-13T05:36:57.958Z,61.20
2018-09-13T05:37:29.870Z,61.10
2018-09-13T05:38:01.669Z,61.20
2018-09-13T05:38:33.539Z,61.10
2018-09-13T05:39:05.356Z,61.20
2018-09-13T05:39:37.239Z,61.10
2018-09-13T05:40:09.090Z,61.20
2018-09-13T05:40:40.964Z,61.20
2018-09-13T05:41:12.921Z,61.10
2018-09-13T05:41:44.920Z,61.20
2018-09-13T05:42:16.794Z,61.30
2018-09-13T05:42:48.689Z,61.20
2018-09-13T05:43:20.527Z,61.20
2018-09-13T05:43:52.609Z,61.20
2018-09-13T05:44:24.524Z,61.40
2018-09-13T05:44:56.549Z,61.20
2018-09-13T05:45:28.387Z,61.20
2018-09-13T05:46:00.257Z,61.10
2018-09-13T05:46:32.197Z,61.10
2018-09-13T05:47:04.014Z,61.20
2018-09-13T05:47:35.980Z,61.10
2018-09-13T05:48:07.802Z,61.30
2018-09-13T05:48:39.648Z,61.30
2018-09-13T05:49:11.452Z,61.20
2018-09-13T05:49:43.285Z,61.20
2018-09-13T05:50:15.182Z,61.20
2018-09-13T05:50:47.303Z,61.20
2018-09-13T05:51:19.161Z,61.10
2018-09-13T05:51:51.191Z,61.40
2018-09-13T05:52:23.288Z,61.20
2018-09-13T05:52:55.113Z,61.30
2018-09-13T05:53:26.971Z,61.30
2018-09-13T05:53:58.779Z,61.30
2018-09-13T05:54:30.550Z,61.10
2018-09-13T05:55:02.384Z,61.10
2018-09-13T05:55:34.204Z,61.20
2018-09-13T05:56:06.039Z,61.30
2018-09-13T05:56:37.819Z,61.30
2018-09-13T05:57:09.633Z,61.20
2018-09-13T05:57:41.786Z,61.20
2018-09-13T05:58:13.782Z,61.30
2018-09-13T05:58:45.678Z,61.20
2018-09-13T05:59:17.603Z,61.20
2018-09-13T05:59:49.465Z,61.30
2018-09-13T06:00:21.349Z,61.20
2018-09-13T06:00:53.132Z,61.20
2018-09-13T06:01:25.123Z,61.10
2018-09-13T06:01:57.102Z,61.10
2018-09-13T06:02:28.938Z,61.20
2018-09-13T06:03:00.769Z,61.20
2018-09-13T06:03:32.617Z,61.10
2018-09-13T06:04:04.425Z,61.20
2018-09-13T06:04:36.477Z,61.20
2018-09-13T06:05:08.412Z,61.20
2018-09-13T06:05:40.632Z,61.10
2018-09-13T06:06:12.735Z,61.10
2018-09-13T06:06:44.520Z,61.10
2018-09-13T06:07:16.364Z,61.00
2018-09-13T06:07:48.371Z,61.80
2018-09-13T06:08:20.446Z,61.10
2018-09-13T06:08:52.236Z,61.10
2018-09-13T06:09:24.196Z,61.10
2018-09-13T06:09:56.057Z,60.90
2018-09-13T06:10:27.856Z,61.20
2018-09-13T06:10:59.831Z,60.90
2018-09-13T06:11:31.845Z,61.00
2018-09-13T06:12:03.706Z,60.40
2018-09-13T06:12:35.822Z,60.90
2018-09-13T06:13:07.663Z,61.00
2018-09-13T06:13:39.502Z,61.10
2018-09-13T06:14:11.562Z,61.00
2018-09-13T06:14:43.378Z,61.10
2018-09-13T06:15:15.438Z,61.10
2018-09-13T06:15:47.263Z,61.10
2018-09-13T06:16:19.037Z,61.00
2018-09-13T06:16:50.852Z,61.50
2018-09-13T06:17:22.968Z,60.80
2018-09-13T06:17:54.859Z,60.90
2018-09-13T06:18:26.667Z,60.90
2018-09-13T06:18:58.590Z,61.00
2018-09-13T06:19:30.444Z,61.00
2018-09-13T06:20:02.271Z,61.00
2018-09-13T06:20:34.194Z,61.00
2018-09-13T06:21:06.021Z,60.90
2018-09-13T06:21:37.908Z,60.90
2018-09-13T06:22:09.696Z,60.80
2018-09-13T06:22:41.485Z,60.80
2018-09-13T06:23:13.472Z,60.80
2018-09-13T06:23:45.269Z,60.70
2018-09-13T06:24:17.185Z,60.70
2018-09-13T06:24:49.083Z,61.20
2018-09-13T06:25:20.930Z,61.30
2018-09-13T06:25:53.018Z,60.70
2018-09-13T06:26:25.308Z,60.80
2018-09-13T06:26:57.283Z,60.60
2018-09-13T06:27:29.574Z,60.70
2018-09-13T06:28:01.589Z,60.50
2018-09-13T06:28:33.590Z,60.50
2018-09-13T06:29:05.574Z,60.60
2018-09-13T06:29:37.699Z,60.60
2018-09-13T06:30:09.790Z,60.60
2018-09-13T06:30:41.646Z,60.60
2018-09-13T06:31:13.559Z,60.60
2018-09-13T06:31:45.469Z,60.50
2018-09-13T06:32:17.308Z,60.50
2018-09-13T06:32:49.099Z,60.40
2018-09-13T06:33:20.919Z,60.30
2018-09-13T06:33:52.812Z,60.40
2018-09-13T06:34:24.732Z,60.30
2018-09-13T06:34:56.568Z,60.30
2018-09-13T06:35:28.404Z,61.00
2018-09-13T06:36:00.245Z,60.30
2018-09-13T06:36:32.220Z,60.30
2018-09-13T06:37:04.325Z,60.30
2018-09-13T06:37:36.311Z,60.20
2018-09-13T06:38:08.138Z,60.20
2018-09-13T06:38:40.259Z,60.20
2018-09-13T06:39:12.096Z,60.20
2018-09-13T06:39:43.921Z,60.20
2018-09-13T06:40:16.074Z,60.20
2018-09-13T06:40:47.959Z,60.10
2018-09-13T06:41:19.815Z,60.20
2018-09-13T06:41:51.646Z,60.20
2018-09-13T06:42:23.603Z,60.20
2018-09-13T06:42:55.653Z,60.30
2018-09-13T06:43:27.486Z,60.40
2018-09-13T06:43:59.317Z,60.30
2018-09-13T06:44:31.286Z,60.20
2018-09-13T06:45:03.220Z,60.30
2018-09-13T06:45:35.336Z,60.20
2018-09-13T06:46:07.304Z,60.20
2018-09-13T06:46:39.189Z,60.10
2018-09-13T06:47:11.022Z,60.10
2018-09-13T06:47:42.909Z,60.10
2018-09-13T06:48:14.892Z,60.10
2018-09-13T06:48:46.681Z,59.90
2018-09-13T06:49:18.789Z,60.10
2018-09-13T06:49:50.619Z,60.10
2018-09-13T06:50:22.404Z,60.10
2018-09-13T06:50:54.189Z,60.00
2018-09-13T06:51:26.080Z,60.10